sensor_id;sensor_type;location;lat;lon;timestamp;pressure;altitude;pressure_sealevel;temperature;humidity
61119;BME280;51448;51.660;5.824;2023-04-30T00:00:32;102232.72;;;8.40;94.19
61119;BME280;51448;51.660;5.824;2023-04-30T00:03:00;102230.97;;;8.38;94.03
61119;BME280;51448;51.660;5.824;2023-04-30T00:05:28;102231.84;;;8.35;94.33
61119;BME280;51448;51.660;5.824;2023-04-30T00:07:55;102223.97;;;8.31;94.54
61119;BME280;51448;51.660;5.824;2023-04-30T00:10:23;102226.59;;;8.27;94.51
61119;BME280;51448;51.660;5.824;2023-04-30T00:12:50;102228.31;;;8.25;94.58
61119;BME280;51448;51.660;5.824;2023-04-30T00:15:18;102234.44;;;8.23;95.13
61119;BME280;51448;51.660;5.824;2023-04-30T00:17:46;102234.41;;;8.21;94.94
61119;BME280;51448;51.660;5.824;2023-04-30T00:20:14;102230.06;;;8.20;94.67
61119;BME280;51448;51.660;5.824;2023-04-30T00:22:43;102228.28;;;8.18;94.90
61119;BME280;51448;51.660;5.824;2023-04-30T00:25:10;102226.53;;;8.14;95.03
61119;BME280;51448;51.660;5.824;2023-04-30T00:27:38;102231.75;;;8.09;95.20
61119;BME280;51448;51.660;5.824;2023-04-30T00:30:07;102228.22;;;8.05;95.13
61119;BME280;51448;51.660;5.824;2023-04-30T00:32:35;102235.22;;;8.03;94.92
61119;BME280;51448;51.660;5.824;2023-04-30T00:35:03;102227.34;;;8.00;95.76
61119;BME280;51448;51.660;5.824;2023-04-30T00:37:32;102237.81;;;8.00;95.94
61119;BME280;51448;51.660;5.824;2023-04-30T00:40:00;102236.06;;;7.99;96.05
61119;BME280;51448;51.660;5.824;2023-04-30T00:42:28;102231.69;;;7.97;95.73
61119;BME280;51448;51.660;5.824;2023-04-30T00:44:55;102237.81;;;7.96;95.67
61119;BME280;51448;51.660;5.824;2023-04-30T00:47:24;102232.56;;;7.94;95.99
61119;BME280;51448;51.660;5.824;2023-04-30T00:49:52;102238.66;;;7.93;96.29
61119;BME280;51448;51.660;5.824;2023-04-30T00:52:20;102230.78;;;7.89;96.61
61119;BME280;51448;51.660;5.824;2023-04-30T00:54:48;102240.34;;;7.85;96.10
61119;BME280;51448;51.660;5.824;2023-04-30T00:57:16;102239.47;;;7.81;96.48
61119;BME280;51448;51.660;5.824;2023-04-30T00:59:44;102235.97;;;7.81;96.25
61119;BME280;51448;51.660;5.824;2023-04-30T01:02:12;102235.06;;;7.79;96.52
61119;BME280;51448;51.660;5.824;2023-04-30T01:04:40;102246.41;;;7.76;96.49
61119;BME280;51448;51.660;5.824;2023-04-30T01:07:07;102242.03;;;7.74;96.51
61119;BME280;51448;51.660;5.824;2023-04-30T01:09:35;102235.03;;;7.70;95.94
61119;BME280;51448;51.660;5.824;2023-04-30T01:12:19;102239.38;;;7.68;96.32
61119;BME280;51448;51.660;5.824;2023-04-30T01:18:03;102241.94;;;7.58;96.98
61119;BME280;51448;51.660;5.824;2023-04-30T01:20:38;102250.63;;;7.51;96.51
61119;BME280;51448;51.660;5.824;2023-04-30T01:28:43;102246.97;;;7.31;96.27
61119;BME280;51448;51.660;5.824;2023-04-30T01:31:19;102247.81;;;7.27;96.89
61119;BME280;51448;51.660;5.824;2023-04-30T01:33:46;102242.53;;;7.22;96.66
61119;BME280;51448;51.660;5.824;2023-04-30T01:39:17;102239.84;;;7.13;97.17
61119;BME280;51448;51.660;5.824;2023-04-30T01:42:11;102238.94;;;7.09;97.22
61119;BME280;51448;51.660;5.824;2023-04-30T01:47:38;102242.34;;;7.00;97.73
61119;BME280;51448;51.660;5.824;2023-04-30T01:50:41;102244.09;;;7.00;98.10
61119;BME280;51448;51.660;5.824;2023-04-30T01:53:20;102240.53;;;6.95;98.29
61119;BME280;51448;51.660;5.824;2023-04-30T01:55:56;102244.03;;;6.94;98.47
61119;BME280;51448;51.660;5.824;2023-04-30T01:58:29;102237.88;;;6.89;98.17
61119;BME280;51448;51.660;5.824;2023-04-30T02:00:58;102247.44;;;6.87;98.18
61119;BME280;51448;51.660;5.824;2023-04-30T02:03:25;102245.66;;;6.82;98.33
61119;BME280;51448;51.660;5.824;2023-04-30T02:05:54;102244.75;;;6.80;98.42
61119;BME280;51448;51.660;5.824;2023-04-30T02:08:22;102256.06;;;6.78;98.06
61119;BME280;51448;51.660;5.824;2023-04-30T02:10:50;102253.41;;;6.73;98.19
61119;BME280;51448;51.660;5.824;2023-04-30T02:13:18;102250.75;;;6.70;98.18
61119;BME280;51448;51.660;5.824;2023-04-30T02:15:46;102252.47;;;6.67;98.10
61119;BME280;51448;51.660;5.824;2023-04-30T02:18:14;102248.06;;;6.64;98.16
61119;BME280;51448;51.660;5.824;2023-04-30T02:20:41;102250.66;;;6.61;98.22
61119;BME280;51448;51.660;5.824;2023-04-30T02:23:09;102244.53;;;6.59;98.41
61119;BME280;51448;51.660;5.824;2023-04-30T02:25:37;102246.25;;;6.55;98.39
61119;BME280;51448;51.660;5.824;2023-04-30T02:28:06;102251.44;;;6.52;98.79
61119;BME280;51448;51.660;5.824;2023-04-30T02:30:33;102246.19;;;6.51;99.24
61119;BME280;51448;51.660;5.824;2023-04-30T02:33:01;102241.78;;;6.47;99.51
61119;BME280;51448;51.660;5.824;2023-04-30T02:35:29;102239.13;;;6.43;99.38
61119;BME280;51448;51.660;5.824;2023-04-30T02:37:57;102235.63;;;6.41;99.66
61119;BME280;51448;51.660;5.824;2023-04-30T02:40:24;102242.56;;;6.39;99.49
61119;BME280;51448;51.660;5.824;2023-04-30T02:42:52;102236.44;;;6.36;99.72
61119;BME280;51448;51.660;5.824;2023-04-30T02:45:22;102239.03;;;6.34;100.00
61119;BME280;51448;51.660;5.824;2023-04-30T02:47:50;102232.91;;;6.32;100.00
61119;BME280;51448;51.660;5.824;2023-04-30T02:50:17;102235.53;;;6.32;99.74
61119;BME280;51448;51.660;5.824;2023-04-30T02:52:45;102232.03;;;6.30;99.83
61119;BME280;51448;51.660;5.824;2023-04-30T02:55:15;102235.47;;;6.26;99.51
61119;BME280;51448;51.660;5.824;2023-04-30T02:57:43;102227.63;;;6.26;99.60
61119;BME280;51448;51.660;5.824;2023-04-30T03:00:11;102230.19;;;6.23;99.45
61119;BME280;51448;51.660;5.824;2023-04-30T03:02:39;102243.25;;;6.23;100.00
61119;BME280;51448;51.660;5.824;2023-04-30T03:05:08;102241.50;;;6.22;100.00
61119;BME280;51448;51.660;5.824;2023-04-30T03:07:35;102238.88;;;6.22;100.00
61119;BME280;51448;51.660;5.824;2023-04-30T03:10:03;102234.50;;;6.19;100.00
61119;BME280;51448;51.660;5.824;2023-04-30T03:12:33;102240.56;;;6.17;100.00
61119;BME280;51448;51.660;5.824;2023-04-30T03:15:00;102242.25;;;6.12;100.00
61119;BME280;51448;51.660;5.824;2023-04-30T03:17:28;102243.00;;;6.04;100.00
61119;BME280;51448;51.660;5.824;2023-04-30T03:19:55;102237.72;;;6.00;100.00
61119;BME280;51448;51.660;5.824;2023-04-30T03:22:23;102240.31;;;5.98;100.00
61119;BME280;51448;51.660;5.824;2023-04-30T03:24:52;102237.72;;;5.97;100.00
61119;BME280;51448;51.660;5.824;2023-04-30T03:27:20;102234.19;;;5.96;100.00
61119;BME280;51448;51.660;5.824;2023-04-30T03:29:48;102235.94;;;5.96;100.00
61119;BME280;51448;51.660;5.824;2023-04-30T03:32:16;102235.06;;;5.95;100.00
61119;BME280;51448;51.660;5.824;2023-04-30T03:34:44;102238.53;;;5.96;100.00
61119;BME280;51448;51.660;5.824;2023-04-30T03:37:12;102231.59;;;5.95;100.00
61119;BME280;51448;51.660;5.824;2023-04-30T03:39:39;102240.22;;;5.94;100.00
61119;BME280;51448;51.660;5.824;2023-04-30T03:42:07;102240.19;;;5.91;100.00
61119;BME280;51448;51.660;5.824;2023-04-30T03:44:35;102244.53;;;5.90;100.00
61119;BME280;51448;51.660;5.824;2023-04-30T03:47:02;102248.00;;;5.89;100.00
61119;BME280;51448;51.660;5.824;2023-04-30T03:49:31;102250.63;;;5.89;100.00
61119;BME280;51448;51.660;5.824;2023-04-30T03:51:59;102255.81;;;5.88;100.00
61119;BME280;51448;51.660;5.824;2023-04-30T03:54:27;102247.09;;;5.87;100.00
61119;BME280;51448;51.660;5.824;2023-04-30T03:56:55;102245.34;;;5.86;100.00
61119;BME280;51448;51.660;5.824;2023-04-30T03:59:23;102251.47;;;5.87;100.00
61119;BME280;51448;51.660;5.824;2023-04-30T04:01:52;102248.81;;;5.85;100.00
61119;BME280;51448;51.660;5.824;2023-04-30T04:04:20;102251.41;;;5.83;100.00
61119;BME280;51448;51.660;5.824;2023-04-30T04:06:48;102248.75;;;5.82;100.00
61119;BME280;51448;51.660;5.824;2023-04-30T04:09:18;102249.63;;;5.81;100.00
61119;BME280;51448;51.660;5.824;2023-04-30T04:11:46;102241.78;;;5.81;100.00
61119;BME280;51448;51.660;5.824;2023-04-30T04:14:13;102243.53;;;5.82;100.00
61119;BME280;51448;51.660;5.824;2023-04-30T04:16:41;102240.94;;;5.80;100.00
61119;BME280;51448;51.660;5.824;2023-04-30T04:19:09;102241.75;;;5.78;100.00
61119;BME280;51448;51.660;5.824;2023-04-30T04:21:39;102242.59;;;5.77;100.00
61119;BME280;51448;51.660;5.824;2023-04-30T04:24:13;102241.72;;;5.75;100.00
61119;BME280;51448;51.660;5.824;2023-04-30T04:26:41;102240.84;;;5.76;100.00
61119;BME280;51448;51.660;5.824;2023-04-30T04:29:09;102240.00;;;5.77;100.00
61119;BME280;51448;51.660;5.824;2023-04-30T04:31:39;102246.09;;;5.77;100.00
61119;BME280;51448;51.660;5.824;2023-04-30T04:34:10;102255.66;;;5.77;100.00
61119;BME280;51448;51.660;5.824;2023-04-30T04:36:37;102245.22;;;5.77;100.00
61119;BME280;51448;51.660;5.824;2023-04-30T04:39:05;102244.34;;;5.78;100.00
61119;BME280;51448;51.660;5.824;2023-04-30T04:41:33;102246.13;;;5.79;100.00
61119;BME280;51448;51.660;5.824;2023-04-30T04:44:05;102258.31;;;5.78;100.00
61119;BME280;51448;51.660;5.824;2023-04-30T04:46:34;102245.25;;;5.80;100.00
61119;BME280;51448;51.660;5.824;2023-04-30T04:49:04;102256.59;;;5.82;100.00
61119;BME280;51448;51.660;5.824;2023-04-30T04:51:32;102266.22;;;5.84;100.00
61119;BME280;51448;51.660;5.824;2023-04-30T04:54:00;102262.75;;;5.85;100.00
61119;BME280;51448;51.660;5.824;2023-04-30T04:56:28;102264.50;;;5.88;100.00
61119;BME280;51448;51.660;5.824;2023-04-30T04:58:55;102262.81;;;5.90;100.00
61119;BME280;51448;51.660;5.824;2023-04-30T05:01:26;102262.84;;;5.93;100.00
61119;BME280;51448;51.660;5.824;2023-04-30T05:03:54;102265.53;;;5.95;100.00
61119;BME280;51448;51.660;5.824;2023-04-30T05:06:22;102266.44;;;5.97;100.00
61119;BME280;51448;51.660;5.824;2023-04-30T05:08:49;102269.94;;;6.00;100.00
61119;BME280;51448;51.660;5.824;2023-04-30T05:11:17;102268.22;;;6.02;100.00
61119;BME280;51448;51.660;5.824;2023-04-30T05:13:45;102277.84;;;6.07;100.00
61119;BME280;51448;51.660;5.824;2023-04-30T05:16:13;102277.94;;;6.13;100.00
61119;BME280;51448;51.660;5.824;2023-04-30T05:18:41;102282.38;;;6.18;100.00
61119;BME280;51448;51.660;5.824;2023-04-30T05:21:09;102282.47;;;6.24;100.00
61119;BME280;51448;51.660;5.824;2023-04-30T05:23:36;102286.91;;;6.30;100.00
61119;BME280;51448;51.660;5.824;2023-04-30T05:26:04;102284.34;;;6.35;100.00
61119;BME280;51448;51.660;5.824;2023-04-30T05:28:32;102279.16;;;6.39;100.00
61119;BME280;51448;51.660;5.824;2023-04-30T05:31:00;102277.50;;;6.44;100.00
61119;BME280;51448;51.660;5.824;2023-04-30T05:33:28;102280.19;;;6.51;100.00
61119;BME280;51448;51.660;5.824;2023-04-30T05:35:55;102277.63;;;6.57;100.00
61119;BME280;51448;51.660;5.824;2023-04-30T05:38:23;102270.72;;;6.63;100.00
61119;BME280;51448;51.660;5.824;2023-04-30T05:40:50;102277.78;;;6.69;100.00
61119;BME280;51448;51.660;5.824;2023-04-30T05:43:18;102271.75;;;6.75;100.00
61119;BME280;51448;51.660;5.824;2023-04-30T05:45:45;102271.81;;;6.82;100.00
61119;BME280;51448;51.660;5.824;2023-04-30T05:48:13;102271.03;;;6.90;100.00
61119;BME280;51448;51.660;5.824;2023-04-30T05:50:42;102272.81;;;6.97;100.00
61119;BME280;51448;51.660;5.824;2023-04-30T05:53:09;102272.03;;;7.04;100.00
61119;BME280;51448;51.660;5.824;2023-04-30T05:55:37;102272.09;;;7.10;100.00
61119;BME280;51448;51.660;5.824;2023-04-30T05:58:05;102275.66;;;7.18;100.00
61119;BME280;51448;51.660;5.824;2023-04-30T06:00:32;102263.50;;;7.27;100.00
61119;BME280;51448;51.660;5.824;2023-04-30T06:03:00;102260.97;;;7.36;100.00
61119;BME280;51448;51.660;5.824;2023-04-30T06:05:28;102255.78;;;7.42;100.00
61119;BME280;51448;51.660;5.824;2023-04-30T06:07:56;102256.72;;;7.50;100.00
61119;BME280;51448;51.660;5.824;2023-04-30T06:10:23;102267.25;;;7.59;100.00
61119;BME280;51448;51.660;5.824;2023-04-30T06:12:51;102269.06;;;7.68;100.00
61119;BME280;51448;51.660;5.824;2023-04-30T06:15:19;102269.13;;;7.76;100.00
61119;BME280;51448;51.660;5.824;2023-04-30T06:17:46;102266.56;;;7.83;100.00
61119;BME280;51448;51.660;5.824;2023-04-30T06:20:14;102265.75;;;7.94;100.00
61119;BME280;51448;51.660;5.824;2023-04-30T06:22:45;102274.53;;;8.05;100.00
61119;BME280;51448;51.660;5.824;2023-04-30T06:25:13;102269.34;;;8.14;100.00
61119;BME280;51448;51.660;5.824;2023-04-30T06:27:40;102271.13;;;8.27;100.00
61119;BME280;51448;51.660;5.824;2023-04-30T06:30:08;102271.19;;;8.40;100.00
61119;BME280;51448;51.660;5.824;2023-04-30T06:32:36;102269.53;;;8.56;100.00
61119;BME280;51448;51.660;5.824;2023-04-30T06:35:04;102261.72;;;8.70;100.00
61119;BME280;51448;51.660;5.824;2023-04-30T06:37:32;102268.75;;;8.84;100.00
61119;BME280;51448;51.660;5.824;2023-04-30T06:40:04;102268.78;;;8.97;100.00
61119;BME280;51448;51.660;5.824;2023-04-30T06:42:32;102263.53;;;9.14;100.00
61119;BME280;51448;51.660;5.824;2023-04-30T06:45:02;102263.53;;;9.34;100.00
61119;BME280;51448;51.660;5.824;2023-04-30T06:47:30;102270.53;;;9.53;100.00
61119;BME280;51448;51.660;5.824;2023-04-30T06:50:01;102272.25;;;9.73;100.00
61119;BME280;51448;51.660;5.824;2023-04-30T06:52:29;102272.22;;;9.94;100.00
61119;BME280;51448;51.660;5.824;2023-04-30T06:54:57;102268.66;;;10.11;100.00
61119;BME280;51448;51.660;5.824;2023-04-30T06:57:24;102278.25;;;10.33;100.00
61119;BME280;51448;51.660;5.824;2023-04-30T06:59:54;102274.66;;;10.59;99.45
61119;BME280;51448;51.660;5.824;2023-04-30T07:02:22;102272.81;;;10.75;98.13
61119;BME280;51448;51.660;5.824;2023-04-30T07:04:49;102277.09;;;10.90;97.06
61119;BME280;51448;51.660;5.824;2023-04-30T07:07:17;102276.97;;;11.08;96.60
61119;BME280;51448;51.660;5.824;2023-04-30T07:09:45;102275.13;;;11.22;95.35
61119;BME280;51448;51.660;5.824;2023-04-30T07:12:13;102273.19;;;11.40;96.09
61119;BME280;51448;51.660;5.824;2023-04-30T07:14:41;102274.78;;;11.61;94.62
61119;BME280;51448;51.660;5.824;2023-04-30T07:17:10;102279.91;;;11.78;94.18
61119;BME280;51448;51.660;5.824;2023-04-30T07:19:38;102269.22;;;11.93;92.69
61119;BME280;51448;51.660;5.824;2023-04-30T07:22:05;102270.84;;;12.03;91.77
61119;BME280;51448;51.660;5.824;2023-04-30T07:24:33;102270.75;;;12.14;91.19
61119;BME280;51448;51.660;5.824;2023-04-30T07:27:01;102277.69;;;12.23;90.29
61119;BME280;51448;51.660;5.824;2023-04-30T07:29:30;102277.59;;;12.29;90.43
61119;BME280;51448;51.660;5.824;2023-04-30T07:31:57;102270.31;;;12.48;90.79
61119;BME280;51448;51.660;5.824;2023-04-30T07:34:25;102277.06;;;12.69;89.12
61119;BME280;51448;51.660;5.824;2023-04-30T07:36:54;102272.47;;;12.83;87.69
61119;BME280;51448;51.660;5.824;2023-04-30T07:39:21;102268.78;;;12.95;87.30
61119;BME280;51448;51.660;5.824;2023-04-30T07:41:49;102278.19;;;13.13;88.62
61119;BME280;51448;51.660;5.824;2023-04-30T07:44:16;102273.50;;;13.32;87.97
61119;BME280;51448;51.660;5.824;2023-04-30T07:46:46;102270.53;;;13.52;86.87
61119;BME280;51448;51.660;5.824;2023-04-30T07:49:13;102273.72;;;13.69;86.39
61119;BME280;51448;51.660;5.824;2023-04-30T07:51:43;102270.91;;;13.80;84.79
61119;BME280;51448;51.660;5.824;2023-04-30T07:54:11;102268.09;;;13.88;84.92
61119;BME280;51448;51.660;5.824;2023-04-30T07:56:38;102267.81;;;14.03;84.05
61119;BME280;51448;51.660;5.824;2023-04-30T07:59:06;102265.81;;;14.16;84.33
61119;BME280;51448;51.660;5.824;2023-04-30T08:01:34;102269.94;;;14.29;82.90
61119;BME280;51448;51.660;5.824;2023-04-30T08:04:01;102276.03;;;14.33;82.04
61119;BME280;51448;51.660;5.824;2023-04-30T08:06:29;102276.03;;;14.33;81.11
61119;BME280;51448;51.660;5.824;2023-04-30T08:08:58;102280.47;;;14.33;80.77
61119;BME280;51448;51.660;5.824;2023-04-30T08:11:26;102281.06;;;14.45;81.42
61119;BME280;51448;51.660;5.824;2023-04-30T08:13:54;102278.25;;;14.56;80.92
61119;BME280;51448;51.660;5.824;2023-04-30T08:16:22;102278.88;;;14.66;79.29
61119;BME280;51448;51.660;5.824;2023-04-30T08:18:50;102276.34;;;14.61;79.17
61119;BME280;51448;51.660;5.824;2023-04-30T08:21:17;102280.75;;;14.62;79.14
61119;BME280;51448;51.660;5.824;2023-04-30T08:23:45;102275.34;;;14.67;78.85
61119;BME280;51448;51.660;5.824;2023-04-30T08:26:13;102272.56;;;14.73;78.71
61119;BME280;51448;51.660;5.824;2023-04-30T08:28:41;102279.44;;;14.80;78.02
61119;BME280;51448;51.660;5.824;2023-04-30T08:31:08;102282.78;;;14.88;77.63
61119;BME280;51448;51.660;5.824;2023-04-30T08:33:36;102283.72;;;14.87;76.34
61119;BME280;51448;51.660;5.824;2023-04-30T08:36:04;102282.09;;;14.80;76.72
61119;BME280;51448;51.660;5.824;2023-04-30T08:38:32;102286.53;;;14.80;77.35
61119;BME280;51448;51.660;5.824;2023-04-30T08:41:11;102278.53;;;14.83;76.48
61119;BME280;51448;51.660;5.824;2023-04-30T08:43:40;102276.59;;;14.89;78.07
61119;BME280;51448;51.660;5.824;2023-04-30T08:46:11;102271.72;;;15.10;77.61
61119;BME280;51448;51.660;5.824;2023-04-30T08:48:40;102279.13;;;15.32;77.43
61119;BME280;51448;51.660;5.824;2023-04-30T08:51:07;102279.63;;;15.46;76.13
61119;BME280;51448;51.660;5.824;2023-04-30T08:53:36;102268.94;;;15.51;76.20
61119;BME280;51448;51.660;5.824;2023-04-30T08:56:05;102271.59;;;15.51;75.96
61119;BME280;51448;51.660;5.824;2023-04-30T08:58:32;102266.34;;;15.47;75.11
61119;BME280;51448;51.660;5.824;2023-04-30T09:01:01;102265.66;;;15.41;74.49
61119;BME280;51448;51.660;5.824;2023-04-30T09:03:30;102265.81;;;15.35;74.15
61119;BME280;51448;51.660;5.824;2023-04-30T09:05:58;102271.84;;;15.40;74.79
61119;BME280;51448;51.660;5.824;2023-04-30T09:08:44;102268.03;;;15.52;74.04
61119;BME280;51448;51.660;5.824;2023-04-30T09:11:30;102268.94;;;15.51;74.46
61119;BME280;51448;51.660;5.824;2023-04-30T09:13:59;102267.97;;;15.53;74.05
61119;BME280;51448;51.660;5.824;2023-04-30T09:16:48;102258.13;;;15.58;74.00
61119;BME280;51448;51.660;5.824;2023-04-30T09:19:29;102253.56;;;15.63;74.68
61119;BME280;51448;51.660;5.824;2023-04-30T09:21:58;102254.25;;;15.72;74.96
61119;BME280;51448;51.660;5.824;2023-04-30T09:24:25;102251.19;;;15.87;74.33
61119;BME280;51448;51.660;5.824;2023-04-30T09:27:16;102254.50;;;15.95;73.62
61119;BME280;51448;51.660;5.824;2023-04-30T09:29:50;102253.28;;;16.07;74.21
61119;BME280;51448;51.660;5.824;2023-04-30T09:32:18;102257.28;;;16.22;73.72
61119;BME280;51448;51.660;5.824;2023-04-30T09:34:47;102249.06;;;16.31;72.40
61119;BME280;51448;51.660;5.824;2023-04-30T09:37:15;102242.75;;;16.35;71.74
61119;BME280;51448;51.660;5.824;2023-04-30T09:39:52;102246.25;;;16.36;70.07
61119;BME280;51448;51.660;5.824;2023-04-30T09:42:21;102240.34;;;16.26;69.76
61119;BME280;51448;51.660;5.824;2023-04-30T09:44:52;102247.41;;;16.27;70.45
61119;BME280;51448;51.660;5.824;2023-04-30T09:47:20;102250.75;;;16.34;68.72
61119;BME280;51448;51.660;5.824;2023-04-30T09:49:49;102247.19;;;16.35;68.62
61119;BME280;51448;51.660;5.824;2023-04-30T09:52:21;102238.25;;;16.37;67.94
61119;BME280;51448;51.660;5.824;2023-04-30T09:54:50;102235.56;;;16.39;68.19
61119;BME280;51448;51.660;5.824;2023-04-30T09:57:20;102236.19;;;16.47;68.83
61119;BME280;51448;51.660;5.824;2023-04-30T09:59:51;102236.84;;;16.55;67.76
61119;BME280;51448;51.660;5.824;2023-04-30T10:02:21;102227.91;;;16.58;67.45
61119;BME280;51448;51.660;5.824;2023-04-30T10:04:54;102226.97;;;16.59;67.67
61119;BME280;51448;51.660;5.824;2023-04-30T10:07:30;102223.28;;;16.63;67.24
61119;BME280;51448;51.660;5.824;2023-04-30T10:10:09;102222.28;;;16.67;66.20
61119;BME280;51448;51.660;5.824;2023-04-30T10:12:50;102220.13;;;16.80;66.52
61119;BME280;51448;51.660;5.824;2023-04-30T10:15:33;102214.44;;;16.92;66.74
61119;BME280;51448;51.660;5.824;2023-04-30T10:18:10;102214.97;;;17.02;65.22
61119;BME280;51448;51.660;5.824;2023-04-30T10:20:45;102208.56;;;17.09;66.79
61119;BME280;51448;51.660;5.824;2023-04-30T10:23:15;102214.22;;;17.25;66.73
61119;BME280;51448;51.660;5.824;2023-04-30T10:25:43;102217.38;;;17.36;64.66
61119;BME280;51448;51.660;5.824;2023-04-30T10:28:13;102212.56;;;17.47;65.58
61119;BME280;51448;51.660;5.824;2023-04-30T10:30:42;102216.50;;;17.61;64.82
61119;BME280;51448;51.660;5.824;2023-04-30T10:35:51;102212.19;;;17.58;62.82
61119;BME280;51448;51.660;5.824;2023-04-30T10:38:25;102210.28;;;17.62;63.73
61119;BME280;51448;51.660;5.824;2023-04-30T10:40:58;102199.94;;;17.78;64.71
61119;BME280;51448;51.660;5.824;2023-04-30T10:43:30;102203.00;;;17.92;63.77
61119;BME280;51448;51.660;5.824;2023-04-30T10:46:01;102199.38;;;17.95;62.58
61119;BME280;51448;51.660;5.824;2023-04-30T10:48:33;102194.91;;;17.95;63.61
61119;BME280;51448;51.660;5.824;2023-04-30T10:51:02;102193.25;;;17.93;62.59
61119;BME280;51448;51.660;5.824;2023-04-30T10:53:30;102188.88;;;17.90;64.73
61119;BME280;51448;51.660;5.824;2023-04-30T10:56:01;102188.53;;;17.99;64.38
61119;BME280;51448;51.660;5.824;2023-04-30T10:58:37;102184.72;;;17.81;63.39
61119;BME280;51448;51.660;5.824;2023-04-30T11:01:14;102189.47;;;17.73;62.70
61119;BME280;51448;51.660;5.824;2023-04-30T11:04:08;102181.88;;;17.62;62.71
61119;BME280;51448;51.660;5.824;2023-04-30T11:07:01;102178.03;;;17.46;63.28
61119;BME280;51448;51.660;5.824;2023-04-30T11:12:11;102178.94;;;17.45;63.22
61119;BME280;51448;51.660;5.824;2023-04-30T11:14:42;102178.00;;;17.71;63.94
61119;BME280;51448;51.660;5.824;2023-04-30T11:17:20;102165.41;;;18.01;63.62
61119;BME280;51448;51.660;5.824;2023-04-30T11:19:51;102160.91;;;18.25;62.95
61119;BME280;51448;51.660;5.824;2023-04-30T11:22:22;102162.06;;;18.42;62.13
61119;BME280;51448;51.660;5.824;2023-04-30T11:27:23;102162.53;;;18.52;61.75
61119;BME280;51448;51.660;5.824;2023-04-30T11:29:53;102162.78;;;18.45;61.81
61119;BME280;51448;51.660;5.824;2023-04-30T11:32:25;102153.75;;;18.27;61.49
61119;BME280;51448;51.660;5.824;2023-04-30T11:34:59;102152.72;;;18.08;61.49
61119;BME280;51448;51.660;5.824;2023-04-30T11:37:29;102148.09;;;18.13;61.75
61119;BME280;51448;51.660;5.824;2023-04-30T11:40:00;102143.16;;;18.26;59.47
61119;BME280;51448;51.660;5.824;2023-04-30T11:42:30;102136.31;;;18.41;60.42
61119;BME280;51448;51.660;5.824;2023-04-30T11:45:05;102136.06;;;18.69;59.57
61119;BME280;51448;51.660;5.824;2023-04-30T11:50:18;102135.56;;;19.03;58.63
61119;BME280;51448;51.660;5.824;2023-04-30T11:52:55;102127.19;;;19.11;57.71
61119;BME280;51448;51.660;5.824;2023-04-30T11:55:25;102122.66;;;19.13;57.53
61119;BME280;51448;51.660;5.824;2023-04-30T11:57:56;102128.00;;;19.13;56.77
61119;BME280;51448;51.660;5.824;2023-04-30T12:00:27;102115.88;;;19.06;56.40
61119;BME280;51448;51.660;5.824;2023-04-30T12:02:59;102121.06;;;19.09;56.19
61119;BME280;51448;51.660;5.824;2023-04-30T12:05:30;102119.03;;;19.16;55.53
61119;BME280;51448;51.660;5.824;2023-04-30T12:08:03;102124.63;;;19.30;56.34
61119;BME280;51448;51.660;5.824;2023-04-30T12:10:35;102110.38;;;19.50;56.37
61119;BME280;51448;51.660;5.824;2023-04-30T12:13:03;102114.00;;;19.68;54.94
61119;BME280;51448;51.660;5.824;2023-04-30T12:15:31;102116.59;;;19.50;53.16
61119;BME280;51448;51.660;5.824;2023-04-30T12:18:10;102127.72;;;19.19;53.31
61119;BME280;51448;51.660;5.824;2023-04-30T12:20:40;102116.41;;;18.94;53.54
61119;BME280;51448;51.660;5.824;2023-04-30T12:23:10;102109.47;;;18.89;53.95
61119;BME280;51448;51.660;5.824;2023-04-30T12:25:41;102106.59;;;18.94;54.55
61119;BME280;51448;51.660;5.824;2023-04-30T12:28:10;102104.75;;;18.74;54.31
61119;BME280;51448;51.660;5.824;2023-04-30T12:30:38;102109.00;;;18.58;54.02
61119;BME280;51448;51.660;5.824;2023-04-30T12:33:09;102109.69;;;18.41;55.32
61119;BME280;51448;51.660;5.824;2023-04-30T12:35:41;102110.28;;;18.47;55.93
61119;BME280;51448;51.660;5.824;2023-04-30T12:38:10;102101.81;;;18.60;55.81
61119;BME280;51448;51.660;5.824;2023-04-30T12:40:46;102098.56;;;18.74;55.08
61119;BME280;51448;51.660;5.824;2023-04-30T12:43:15;102094.03;;;18.76;55.37
61119;BME280;51448;51.660;5.824;2023-04-30T12:46:02;102100.28;;;18.97;54.37
61119;BME280;51448;51.660;5.824;2023-04-30T12:48:42;102088.81;;;19.15;53.60
61119;BME280;51448;51.660;5.824;2023-04-30T12:51:18;102084.94;;;19.22;53.64
61119;BME280;51448;51.660;5.824;2023-04-30T12:53:46;102081.06;;;19.29;54.02
61119;BME280;51448;51.660;5.824;2023-04-30T12:56:17;102084.72;;;19.27;53.24
61119;BME280;51448;51.660;5.824;2023-04-30T12:58:46;102088.16;;;19.10;53.16
61119;BME280;51448;51.660;5.824;2023-04-30T13:01:19;102086.75;;;19.01;53.90
61119;BME280;51448;51.660;5.824;2023-04-30T13:03:50;102081.50;;;19.00;55.33
61119;BME280;51448;51.660;5.824;2023-04-30T13:06:22;102079.75;;;18.99;53.82
61119;BME280;51448;51.660;5.824;2023-04-30T13:08:50;102068.38;;;18.95;53.05
61119;BME280;51448;51.660;5.824;2023-04-30T13:11:25;102070.50;;;18.87;52.28
61119;BME280;51448;51.660;5.824;2023-04-30T13:13:54;102070.78;;;18.81;50.80
61119;BME280;51448;51.660;5.824;2023-04-30T13:16:22;102066.59;;;18.74;51.90
61119;BME280;51448;51.660;5.824;2023-04-30T13:18:53;102062.16;;;18.95;50.76
61119;BME280;51448;51.660;5.824;2023-04-30T13:21:21;102053.06;;;19.19;50.75
61119;BME280;51448;51.660;5.824;2023-04-30T13:23:51;102062.63;;;19.44;50.62
61119;BME280;51448;51.660;5.824;2023-04-30T13:26:21;102061.13;;;19.57;50.01
61119;BME280;51448;51.660;5.824;2023-04-30T13:28:49;102058.88;;;19.48;50.57
61119;BME280;51448;51.660;5.824;2023-04-30T13:31:17;102052.56;;;19.50;51.58